Startpagina
METAR-TAF:

METAR-TAF

Vliegvelden :

Luchthaven Genève

Genève, Zwitserland

breedte: 46-15N, lengte: 006-08E, hoogte: 420 m

Actueel weer

Dit bericht is 23 minuten geleden gemaakt, om 07:20 UTC
Wind 2 kt uit variabele richting
Temperatuur 5°C
Vochtigheid 87%
Druk 1010 hPa
Zicht: 8000 m
Geheel bewolkt op 1200 ft

METAR: LSGG 210720Z VRB02KT 8000 OVC012 05/03 Q1010 NOSIG

Tijdstip: 08:43 (07:43 UTC)

Verwachting

Dit bericht is 2 uur en het 18 minuten geleden gemaakt, om 05:25 UTC
Verwachting geldig van 21 om 06 UTC tot 22 om 12 UTC
Wind 2 kt uit variabele richting
Zicht 10 km of meer
Gebroken wolken op 1200 ft
Wijzigt naar
van 21 om 10 UTC tot 21 om 12 UTC
Verspreide wolken op 7000 ft
Kans 30% :
Tijdelijke
van 21 om 20 UTC tot 21 om 24 UTC
Gebroken wolken op 7000 ft
regenbuien
Wijzigt naar
van 21 om 09 UTC tot 21 om 12 UTC
Wind 7 kt uit het noordoosten

TAF: LSGG 210525Z 2106/2212 VRB02KT 9999 BKN012 TX07/2114Z TN03/2106Z TN03/2206Z BECMG 2110/2112 SCT070 PROB30 TEMPO 2120/2124 SHRA BKN070 BECMG 2109/2112 05007KT

Waarnemingen en weersverwachtingen van meer dan 4000 vliegvelden (METAR en TAF).

De beschikbare stations zijn de gele en rode punten op de kaart.

Ga met uw muis naar het station om de naam te zien.

Klik dan om waarnemingen en weersverwachtingen te zien.

kaart wijzigen: klik op de groene knoppen met een zwart kruis om in te zoomen, op de groene knop met een streepje om uit te zoomen of op de groene pijlen voor aangrenzende kaarten.


METAR-TAF: